Weather at Treasure Cay Airport

Public forecast

Using degrees Celsius for public forecast. Weather courtesy of forecast.io.

Closest aviation weather report (METAR) to Treasure Cay Airport

Report is more than 6 hours old.

Closest report is Grand Bahama International Airport, 70.9 nm (131.3 km) W. Retrieved 2022/08/15 00:00 UTC (7 hours ago):

MYGF 150000Z 26004KT 230V300 9999 VCSH FEW018CB SCT250 29/23 A2996 RMK CB/VCSH E

Closest aviation forecast (TAF) to Treasure Cay Airport

Closest forecast is Grand Bahama International Airport, 70.9 nm (131.3 km) W. Retrieved 2022/08/15 06:21 UTC (48 minutes ago):

TAF TAF MYGF 150400Z 1506/1606 23003KT 9999 FEW020 BKN250 FM151200 23005KT 9999 SCT018CB SCT250 PROB30 1518/1521 9000 SHRA